Time;durP1;ratioP1;P1;durP2;ratioP2;P2;SDS_P1;SDS_P2;PMS_P1;PMS_P2;Temp;Humidity;BMP_temperature;BMP_pressure;BME280_temperature;BME280_humidity;BME280_pressure;Samples;Min_cycle;Max_cycle;Signal;HPM_P1;HPM_P2
2023/08/20 00:03:30;;;;;;;10.32;9.43;;;21.60;99.90;;;22.58;96.31;98261.91;10386760;28;20241;-71
2023/08/20 00:08:34;;;;;;;10.55;9.70;;;21.60;99.90;;;22.55;96.47;98263.56;10383371;28;20241;-71
2023/08/20 00:13:37;;;;;;;10.45;9.65;;;21.60;99.90;;;22.53;96.38;98262.69;10379040;28;20551;-70
2023/08/20 00:18:42;;;;;;;10.80;9.52;;;21.60;99.90;;;22.45;96.21;98268.66;10373616;28;20223;-70
2023/08/20 00:23:46;;;;;;;11.23;10.32;;;21.50;99.90;;;22.46;96.41;98260.00;10368914;28;20229;-70
2023/08/20 00:28:49;;;;;;;11.90;10.80;;;21.40;99.90;;;22.38;96.37;98265.94;10369535;28;20225;-70
2023/08/20 00:33:54;;;;;;;10.43;9.55;;;21.40;99.90;;;22.26;96.34;98272.69;10369692;28;20250;-70
2023/08/20 00:39:09;;;;;;;11.32;10.43;;;21.30;99.90;;;22.28;96.95;98270.09;10371149;28;20825;-70
2023/08/20 00:44:12;;;;;;;11.25;10.35;;;21.30;99.90;;;22.15;97.66;98270.69;10371576;28;20720;-71
2023/08/20 00:49:17;;;;;;;11.98;10.88;;;21.20;99.90;;;22.15;97.44;98268.06;10369246;28;20849;-71
2023/08/20 00:54:21;;;;;;;11.93;10.77;;;21.20;99.90;;;22.08;98.40;98269.72;10373590;28;20230;-71
2023/08/20 00:59:25;;;;;;;11.30;10.10;;;21.20;99.90;;;22.04;98.08;98281.81;10374293;28;20252;-70
2023/08/20 01:04:30;;;;;;;11.50;10.60;;;21.10;99.90;;;22.05;98.19;98287.88;10375548;28;20272;-69
2023/08/20 01:09:50;;;;;;;11.98;10.88;;;21.10;99.90;;;21.94;98.71;98292.88;10364686;28;20228;-70
2023/08/20 01:14:53;;;;;;;12.00;10.85;;;21.00;99.90;;;21.95;98.79;98291.19;10365048;28;20224;-70
2023/08/20 01:19:58;;;;;;;11.27;10.38;;;21.00;99.90;;;21.87;99.31;98288.41;10366764;28;20226;-70
2023/08/20 01:25:11;;;;;;;12.20;11.10;;;20.90;99.90;;;21.71;100.00;98281.16;10372091;28;20233;-70
2023/08/20 01:30:16;;;;;;;12.27;11.18;;;20.80;99.90;;;21.61;100.00;98280.09;10366489;28;20249;-71
2023/08/20 01:35:19;;;;;;;12.13;11.13;;;20.70;99.90;;;21.67;100.00;98284.56;10370845;28;20741;-70
2023/08/20 01:40:22;;;;;;;12.00;11.10;;;20.80;99.90;;;21.71;100.00;98297.63;10365664;28;20244;-70
2023/08/20 01:45:27;;;;;;;12.70;11.48;;;20.80;99.90;;;21.60;100.00;98304.34;10367907;28;20240;-70
2023/08/20 01:50:30;;;;;;;12.25;11.25;;;20.70;99.90;;;21.59;100.00;98303.47;10373492;28;20295;-70
2023/08/20 01:55:33;;;;;;;12.07;11.27;;;20.70;99.90;;;21.67;100.00;98315.78;10368427;28;20313;-71
2023/08/20 02:00:38;;;;;;;12.25;11.10;;;20.70;99.90;;;21.77;99.60;98304.69;10364146;28;20232;-70
2023/08/20 02:05:41;;;;;;;11.77;10.80;;;20.70;99.90;;;21.68;100.00;98310.59;10378353;28;20243;-71
2023/08/20 02:10:44;;;;;;;12.38;11.18;;;20.60;99.90;;;21.61;100.00;98310.44;10370985;28;20880;-69
2023/08/20 02:15:59;;;;;;;11.98;10.98;;;20.60;99.90;;;21.48;100.00;98299.78;10366730;28;20218;-70
2023/08/20 02:21:02;;;;;;;12.02;10.82;;;20.50;99.90;;;21.44;100.00;98303.16;10366563;28;20230;-71
2023/08/20 02:26:06;;;;;;;12.25;11.25;;;20.50;99.90;;;21.44;100.00;98300.56;10369879;28;20225;-71
2023/08/20 02:31:10;;;;;;;12.32;11.23;;;20.60;99.90;;;21.42;100.00;98297.03;10364346;28;20722;-71
2023/08/20 02:36:13;;;;;;;13.02;12.10;;;20.40;99.90;;;21.31;100.00;98306.31;10364646;28;20226;-71
2023/08/20 02:41:17;;;;;;;13.52;12.23;;;20.30;99.90;;;21.14;100.00;98306.81;10363038;28;20739;-71
2023/08/20 02:46:21;;;;;;;12.35;11.13;;;20.30;99.90;;;21.27;100.00;98299.28;10363732;28;20724;-71
2023/08/20 02:51:24;;;;;;;11.95;10.95;;;20.40;99.90;;;21.31;100.00;98312.38;10365839;28;20312;-71
2023/08/20 02:56:27;;;;;;;12.43;11.52;;;20.40;99.90;;;21.27;100.00;98320.09;10366348;28;20252;-70
2023/08/20 03:01:33;;;;;;;12.27;11.38;;;20.40;99.90;;;21.31;100.00;98306.31;10368485;28;20272;-71
2023/08/20 03:06:36;;;;;;;12.32;11.32;;;20.40;99.90;;;21.28;100.00;98308.84;10364629;28;20276;-71
2023/08/20 03:11:39;;;;;;;11.63;10.63;;;20.30;99.90;;;21.28;100.00;98301.91;10368190;28;20244;-70
2023/08/20 03:16:43;;;;;;;11.85;10.90;;;20.30;99.90;;;21.21;100.00;98305.22;10372224;28;20221;-70
2023/08/20 03:21:46;;;;;;;13.00;11.90;;;20.30;99.90;;;21.21;100.00;98288.75;10360511;28;20700;-70
2023/08/20 03:26:49;;;;;;;12.80;11.65;;;20.30;99.90;;;21.17;100.00;98286.91;10369367;28;20241;-71
2023/08/20 03:31:54;;;;;;;12.43;11.43;;;20.20;99.90;;;21.01;100.00;98284.00;10365186;28;20233;-70
2023/08/20 03:36:57;;;;;;;13.05;11.95;;;20.20;99.90;;;21.01;100.00;98297.00;10372054;28;20372;-70
2023/08/20 03:42:00;;;;;;;12.50;11.40;;;20.10;99.90;;;21.01;100.00;98288.31;10370402;28;20238;-70
2023/08/20 03:47:05;;;;;;;12.82;11.73;;;20.10;99.90;;;20.94;100.00;98279.47;10373066;28;20225;-70
2023/08/20 03:52:11;;;;;;;13.35;12.15;;;20.00;99.90;;;20.89;100.00;98287.19;10362610;28;20240;-71
2023/08/20 03:57:14;;;;;;;12.80;11.90;;;19.90;99.90;;;20.77;100.00;98291.22;10365862;28;20244;-70
2023/08/20 04:02:19;;;;;;;13.00;11.70;;;19.90;99.90;;;20.72;100.00;98290.22;10365693;28;20626;-71
2023/08/20 04:07:22;;;;;;;12.55;11.45;;;19.80;99.90;;;20.75;100.00;98300.72;10376190;28;20755;-71
2023/08/20 04:12:25;;;;;;;12.52;11.45;;;19.80;99.90;;;20.74;100.00;98318.00;10362175;28;20233;-71
2023/08/20 04:17:30;;;;;;;11.93;11.02;;;19.80;99.90;;;20.79;100.00;98323.31;10368361;28;20234;-71
2023/08/20 04:22:33;;;;;;;12.80;11.73;;;19.80;99.90;;;20.88;100.00;98318.31;10364699;28;20233;-71
2023/08/20 04:27:36;;;;;;;12.80;11.43;;;19.80;99.90;;;20.79;100.00;98323.31;10362661;28;20230;-71
2023/08/20 04:32:42;;;;;;;13.20;11.95;;;19.70;99.90;;;20.74;100.00;98320.59;10366356;28;20240;-69
2023/08/20 04:37:45;;;;;;;13.02;11.85;;;19.70;99.90;;;20.55;100.00;98311.50;10363874;28;20221;-70
2023/08/20 04:42:48;;;;;;;13.48;12.32;;;19.60;99.90;;;20.53;100.00;98307.97;10365106;28;20228;-69
2023/08/20 04:47:52;;;;;;;13.20;12.13;;;19.60;99.90;;;20.61;100.00;98314.22;10371348;28;20670;-70
2023/08/20 04:52:56;;;;;;;13.13;12.13;;;19.70;99.90;;;20.72;100.00;98319.69;10368482;28;20234;-70
2023/08/20 04:57:59;;;;;;;14.38;13.07;;;19.90;99.90;;;20.84;100.00;98325.19;10367462;28;20230;-69
2023/08/20 05:03:04;;;;;;;13.95;12.68;;;20.00;99.90;;;20.84;100.00;98325.19;10372171;28;20245;-69
2023/08/20 05:08:08;;;;;;;14.20;13.00;;;20.00;99.90;;;20.90;100.00;98324.44;10369282;28;20230;-70
2023/08/20 05:13:12;;;;;;;12.27;11.30;;;20.00;99.90;;;20.93;100.00;98320.19;10364589;28;20245;-69
2023/08/20 05:18:16;;;;;;;13.27;12.27;;;20.00;99.90;;;21.00;100.00;98309.94;10373006;28;20701;-70
2023/08/20 05:23:20;;;;;;;13.10;12.07;;;20.10;99.90;;;21.06;100.00;98316.19;10371593;28;20610;-70
2023/08/20 05:28:23;;;;;;;12.18;11.27;;;20.20;99.90;;;21.53;100.00;98320.69;10370197;28;20732;-70
2023/08/20 05:33:27;;;;;;;13.45;12.25;;;20.50;99.90;;;22.08;97.17;98323.50;10371584;28;20693;-69
2023/08/20 05:38:31;;;;;;;12.90;11.77;;;21.00;99.90;;;22.90;92.76;98322.38;10365124;28;20225;-70
2023/08/20 05:43:34;;;;;;;12.60;11.55;;;21.70;99.90;;;23.87;86.83;98330.72;10366645;28;20620;-69
2023/08/20 05:48:38;;;;;;;11.77;10.80;;;22.80;99.90;;;24.54;82.04;98339.28;10366893;28;20226;-69
2023/08/20 05:53:41;;;;;;;11.55;10.55;;;23.50;99.90;;;25.07;78.88;98341.47;10367120;28;20577;-70
2023/08/20 05:58:45;;;;;;;11.30;10.30;;;24.00;99.90;;;25.69;75.74;98342.72;10368349;28;20590;-69
2023/08/20 06:03:49;;;;;;;10.95;10.15;;;24.30;99.90;;;25.99;73.69;98347.25;10362344;28;20236;-70
2023/08/20 06:08:52;;;;;;;10.90;9.95;;;24.60;99.90;;;26.37;71.28;98343.84;10359098;28;20240;-70
2023/08/20 06:14:10;;;;;;;11.00;10.10;;;24.60;99.90;;;26.53;70.83;98339.53;10364152;28;20229;-70
2023/08/20 06:19:14;;;;;;;10.95;10.05;;;24.50;99.90;;;26.43;71.61;98329.88;10361033;28;20252;-70
2023/08/20 06:24:17;;;;;;;11.07;10.18;;;24.40;99.90;;;27.10;68.88;98342.13;10367385;28;20229;-70
2023/08/20 06:29:21;;;;;;;10.80;9.90;;;24.90;99.90;;;27.19;68.49;98336.94;10360767;28;20236;-70
2023/08/20 06:34:26;;;;;;;11.07;10.27;;;25.20;99.90;;;27.23;68.57;98340.41;10363995;28;20230;-70
2023/08/20 06:39:29;;;;;;;11.05;10.05;;;25.20;99.90;;;28.35;63.67;98358.41;10364250;28;20543;-70
2023/08/20 06:44:32;;;;;;;11.27;10.27;;;26.10;99.90;;;28.67;62.77;98359.13;10359737;28;20752;-73
2023/08/20 06:49:36;;;;;;;10.88;9.88;;;26.60;99.90;;;28.96;61.39;98347.47;10359804;28;20296;-71
2023/08/20 06:54:40;;;;;;;11.27;10.10;;;27.00;99.90;;;28.42;64.08;98358.41;10374890;28;20767;-69
2023/08/20 06:59:43;;;;;;;11.23;10.23;;;26.60;99.90;;;29.16;61.18;98358.72;10362086;28;20233;-68
2023/08/20 07:04:48;;;;;;;11.57;10.48;;;27.00;99.90;;;29.66;59.49;98358.25;10358553;28;20235;-69
2023/08/20 07:09:51;;;;;;;10.45;9.55;;;27.60;99.90;;;30.46;56.30;98364.25;10371701;28;20233;-69
2023/08/20 07:14:54;;;;;;;11.00;10.10;;;28.40;99.90;;;29.61;60.25;98369.66;10363879;28;20618;-67
2023/08/20 07:19:58;;;;;;;11.00;10.20;;;28.10;99.90;;;30.92;54.92;98358.28;10367253;28;20848;-69
2023/08/20 07:25:03;;;;;;;10.88;9.98;;;28.90;99.90;;;31.74;52.38;98370.06;10364774;28;20222;-68
2023/08/20 07:30:08;;;;;;;10.27;9.40;;;29.30;99.90;;;32.55;50.13;98371.00;10362879;28;20233;-70
2023/08/20 07:35:12;;;;;;;11.23;10.13;;;29.90;99.90;;;32.16;50.79;98378.88;10360048;28;20773;-69
2023/08/20 07:40:15;;;;;;;10.70;10.00;;;29.50;99.90;;;32.89;48.52;98372.88;10364292;28;20237;-67
2023/08/20 07:45:19;;;;;;;10.63;9.82;;;30.00;99.90;;;32.87;49.98;98378.19;10366800;28;20232;-70
2023/08/20 07:50:24;;;;;;;10.48;9.57;;;30.10;99.90;;;33.10;49.02;98361.75;10363069;28;20303;-69
2023/08/20 07:55:27;;;;;;;10.73;9.65;;;30.70;99.90;;;32.73;50.37;98373.22;10360046;28;20226;-69
2023/08/20 08:00:30;;;;;;;11.13;10.02;;;30.70;99.90;;;32.57;51.04;98386.88;10363442;28;20600;-68
2023/08/20 08:05:34;;;;;;;11.82;10.93;;;30.70;99.90;;;32.78;49.93;98383.72;10364484;28;20230;-67
2023/08/20 08:10:37;;;;;;;11.23;10.40;;;30.70;99.90;;;32.75;50.32;98382.00;10369074;28;20244;-68
2023/08/20 08:15:41;;;;;;;12.07;10.90;;;31.30;99.90;;;32.67;51.29;98381.31;10365871;28;20229;-68
2023/08/20 08:20:45;;;;;;;11.73;10.73;;;31.20;99.90;;;32.30;51.89;98395.34;10371182;28;20225;-68
2023/08/20 08:25:48;;;;;;;10.80;9.77;;;30.90;99.90;;;32.74;51.39;98382.91;10370360;28;20226;-68
2023/08/20 08:30:51;;;;;;;11.35;10.25;;;31.50;99.90;;;32.88;50.97;98389.63;10372316;28;20229;-68
2023/08/20 08:35:56;;;;;;;10.18;9.45;;;31.60;99.90;;;33.14;50.89;98389.91;10369285;28;20229;-68
2023/08/20 08:41:01;;;;;;;10.88;9.98;;;32.10;99.90;;;33.18;50.26;98388.91;10369011;28;20229;-68
2023/08/20 08:46:08;;;;;;;10.77;9.85;;;31.90;99.90;;;33.18;50.24;98391.56;10369084;28;20235;-69
2023/08/20 08:51:13;;;;;;;10.50;9.52;;;32.20;99.90;;;33.30;50.17;98392.16;10367478;28;20249;-69
2023/08/20 08:56:16;;;;;;;10.90;10.10;;;32.20;99.80;;;33.28;50.09;98391.31;10369062;28;20230;-69
2023/08/20 09:01:20;;;;;;;10.85;9.95;;;32.20;99.80;;;33.26;50.87;98398.47;10377904;28;20272;-68
2023/08/20 09:06:24;;;;;;;10.77;9.98;;;32.20;99.90;;;33.36;50.01;98398.16;10370517;28;20693;-69
2023/08/20 09:11:36;;;;;;;11.13;10.10;;;32.30;99.60;;;33.49;49.87;98390.78;10371585;28;20233;-67
2023/08/20 09:16:39;;;;;;;10.52;9.65;;;32.60;99.10;;;33.85;48.56;98396.88;10366600;28;20249;-68
2023/08/20 09:21:48;;;;;;;9.93;9.23;;;33.00;98.10;;;33.85;48.49;98396.00;10370440;28;20320;-69
2023/08/20 09:26:57;;;;;;;10.95;10.05;;;33.00;98.20;;;34.12;48.28;98396.16;10369672;28;20595;-70
2023/08/20 09:32:04;;;;;;;10.48;9.68;;;33.20;97.60;;;34.22;48.00;98387.00;10368798;28;20260;-70
2023/08/20 09:37:14;;;;;;;10.57;9.77;;;33.50;97.10;;;34.40;48.38;98382.94;10373796;28;20228;-70
2023/08/20 09:42:18;;;;;;;10.93;9.82;;;33.50;97.80;;;34.37;47.07;98386.56;10366948;28;20264;-69
2023/08/20 09:47:24;;;;;;;9.88;9.18;;;33.50;96.70;;;34.33;46.61;98392.84;10371158;28;20258;-69
2023/08/20 09:52:38;;;;;;;8.75;7.93;;;33.50;96.50;;;34.49;43.00;98388.81;10366013;28;20252;-71
2023/08/20 09:57:42;;;;;;;8.68;7.78;;;33.80;93.00;;;34.40;42.75;98391.78;10371626;28;20225;-71
2023/08/20 10:02:50;;;;;;;8.52;7.68;;;33.40;92.80;;;34.34;40.67;98399.03;10372549;28;20224;-70
2023/08/20 10:07:57;;;;;;;7.20;6.60;;;33.10;91.70;;;34.43;39.64;98391.66;10371317;28;20684;-69
2023/08/20 10:13:00;;;;;;;7.53;6.72;;;33.50;90.00;;;34.12;39.49;98388.22;10370425;28;20229;-69
2023/08/20 10:18:04;;;;;;;7.95;7.15;;;33.30;89.90;;;34.03;41.07;98381.34;10371825;28;20673;-72
2023/08/20 10:23:09;;;;;;;8.65;8.05;;;33.20;90.70;;;33.94;43.42;98374.53;10365866;28;20909;-72
2023/08/20 10:28:15;;;;;;;8.85;7.80;;;33.10;92.50;;;33.83;44.64;98371.31;10364858;28;20225;-71
2023/08/20 10:33:19;;;;;;;9.13;8.32;;;33.20;93.10;;;34.05;43.36;98372.47;10366297;28;20237;-71
2023/08/20 10:38:24;;;;;;;9.32;8.48;;;33.40;92.10;;;33.98;43.72;98375.31;10363487;28;20232;-71
2023/08/20 10:43:35;;;;;;;8.90;8.07;;;33.30;92.50;;;33.97;44.60;98370.88;10365465;28;20268;-72
2023/08/20 10:48:40;;;;;;;8.68;7.97;;;33.00;93.40;;;33.82;45.03;98369.56;10368895;28;20233;-72
2023/08/20 10:54:03;;;;;;;9.68;8.80;;;32.80;93.70;;;33.62;45.85;98365.72;10373708;28;20309;-71
2023/08/20 10:59:09;;;;;;;9.38;8.57;;;33.00;93.50;;;33.63;46.17;98363.91;10359252;28;20269;-71
2023/08/20 11:04:12;;;;;;;9.48;8.68;;;32.60;94.10;;;33.40;48.03;98362.72;10358569;28;20237;-71
2023/08/20 11:09:17;;;;;;;9.57;8.70;;;32.50;95.30;;;33.59;45.80;98364.91;10364420;28;20224;-71
2023/08/20 11:14:23;;;;;;;9.43;8.63;;;32.60;94.40;;;33.43;46.07;98369.72;10360648;28;20908;-70
2023/08/20 11:19:26;;;;;;;9.00;8.18;;;32.60;94.20;;;33.24;46.53;98355.22;10363180;28;20237;-72
2023/08/20 11:24:32;;;;;;;9.13;8.43;;;32.60;94.20;;;33.25;47.21;98356.94;10365758;28;20720;-71
2023/08/20 11:29:36;;;;;;;9.02;8.23;;;32.50;94.70;;;33.37;46.37;98352.22;10365627;28;20240;-71
2023/08/20 11:34:39;;;;;;;7.60;6.75;;;32.70;94.10;;;33.51;43.10;98349.19;10434288;22;20563;-69
2023/08/20 11:39:44;;;;;;;8.23;7.53;;;32.60;91.70;;;33.34;44.95;98349.66;10424429;28;20244;-68
2023/08/20 11:44:48;;;;;;;8.65;7.72;;;32.40;94.00;;;33.12;45.58;98346.69;10408651;28;20221;-65
2023/08/20 11:50:04;;;;;;;7.88;7.18;;;32.40;93.50;;;33.31;44.97;98346.19;10386833;28;20245;-66
2023/08/20 11:55:10;;;;;;;8.02;7.32;;;32.50;93.20;;;33.31;44.22;98339.13;10388933;28;20233;-67
2023/08/20 12:00:26;;;;;;;8.23;7.53;;;32.40;92.30;;;33.27;44.64;98333.94;10394950;28;20225;-67
2023/08/20 12:05:30;;;;;;;8.40;7.68;;;32.40;92.40;;;33.19;44.78;98331.47;10381459;28;21933;-66
2023/08/20 12:10:34;;;;;;;8.05;7.28;;;32.40;92.50;;;33.23;44.52;98325.19;10386775;28;20264;-67
2023/08/20 12:15:37;;;;;;;7.13;6.63;;;32.50;92.10;;;33.43;44.33;98320.22;10386114;28;20237;-67
2023/08/20 12:20:41;;;;;;;7.50;6.90;;;32.60;92.00;;;33.37;43.80;98315.09;10381449;28;20735;-66
2023/08/20 12:25:52;;;;;;;6.88;6.28;;;32.50;91.90;;;33.58;42.62;98318.09;10383100;28;20229;-67
2023/08/20 12:30:55;;;;;;;7.80;6.88;;;32.70;91.20;;;33.67;41.71;98312.50;10379829;28;20716;-67
2023/08/20 12:35:59;;;;;;;7.13;6.50;;;32.80;90.50;;;33.54;42.48;98311.13;10380312;28;20248;-67
2023/08/20 12:41:05;;;;;;;7.55;6.03;;;32.70;91.30;;;33.51;42.45;98312.06;10386456;28;20236;-67
2023/08/20 12:46:08;;;;;;;6.50;6.00;;;32.60;90.40;;;33.62;41.64;98312.66;10388280;28;20740;-67
2023/08/20 12:51:13;;;;;;;6.82;6.22;;;32.70;90.40;;;33.48;41.27;98292.69;10387857;28;21310;-67
2023/08/20 12:56:18;;;;;;;8.07;6.57;;;32.50;89.40;;;33.54;41.37;98290.81;10389917;28;20359;-68
2023/08/20 13:01:21;;;;;;;6.80;6.18;;;32.60;90.10;;;33.55;41.96;98294.31;10397485;28;20229;-67
2023/08/20 13:06:25;;;;;;;7.18;6.57;;;32.60;90.20;;;33.46;42.27;98289.25;10393533;28;20275;-67
2023/08/20 13:11:32;;;;;;;7.30;6.70;;;32.50;90.80;;;33.49;43.47;98283.84;10380132;28;20229;-67
2023/08/20 13:16:36;;;;;;;8.05;7.07;;;32.60;91.50;;;33.33;43.22;98278.09;10382911;28;20374;-67
2023/08/20 13:21:39;;;;;;;7.80;7.07;;;32.50;91.20;;;33.33;43.74;98280.75;10383571;28;20232;-67
2023/08/20 13:26:44;;;;;;;7.43;6.78;;;32.40;91.50;;;33.44;44.15;98283.97;10387622;28;20278;-67
2023/08/20 13:31:47;;;;;;;7.80;7.10;;;32.50;91.30;;;33.30;43.39;98270.25;10382729;28;20248;-67
2023/08/20 13:36:51;;;;;;;7.72;7.13;;;32.30;91.10;;;33.28;43.82;98274.69;10383890;28;20298;-67
2023/08/20 13:41:56;;;;;;;6.82;6.32;;;32.30;91.30;;;33.25;43.52;98272.13;10381892;28;20308;-67
2023/08/20 13:46:59;;;;;;;7.85;7.15;;;32.30;91.70;;;33.06;43.60;98266.50;10382952;28;20787;-67
2023/08/20 13:52:03;;;;;;;7.85;6.93;;;32.20;91.50;;;33.04;43.81;98261.22;10383179;28;20262;-68
2023/08/20 13:57:08;;;;;;;7.85;7.05;;;32.10;91.20;;;33.13;44.65;98262.75;10388691;28;20238;-67
2023/08/20 14:02:11;;;;;;;7.80;7.00;;;32.10;91.90;;;33.17;42.63;98259.13;10390327;28;20229;-68
2023/08/20 14:07:14;;;;;;;7.55;6.72;;;32.20;90.90;;;33.01;44.91;98253.34;10392656;28;20244;-67
2023/08/20 14:12:20;;;;;;;7.93;7.05;;;32.10;92.00;;;33.05;44.13;98249.72;10392579;28;20227;-67
2023/08/20 14:17:23;;;;;;;8.90;7.40;;;32.10;91.90;;;33.07;43.57;98250.53;10388344;28;20685;-68
2023/08/20 14:22:26;;;;;;;8.00;7.28;;;32.10;91.40;;;33.14;44.78;98238.88;10391107;28;20253;-68
2023/08/20 14:27:33;;;;;;;7.65;6.93;;;32.10;91.80;;;33.15;44.00;98235.31;10393738;28;20229;-68
2023/08/20 14:32:37;;;;;;;7.40;6.75;;;32.20;91.60;;;33.01;43.89;98239.25;10389234;28;20786;-68
2023/08/20 14:37:43;;;;;;;7.97;7.28;;;32.10;91.60;;;32.96;44.44;98239.31;10384089;28;20225;-68
2023/08/20 14:42:48;;;;;;;8.88;7.55;;;32.00;91.80;;;32.86;45.13;98237.84;10385876;28;20228;-68
2023/08/20 14:47:51;;;;;;;7.50;6.80;;;32.00;92.00;;;32.89;44.94;98240.41;10388953;28;20228;-68
2023/08/20 14:52:55;;;;;;;8.00;7.20;;;32.00;92.40;;;32.84;44.11;98227.28;10385199;28;20233;-68
2023/08/20 14:57:59;;;;;;;7.57;6.88;;;31.90;91.70;;;32.88;45.63;98225.41;10384484;28;20229;-67
2023/08/20 15:03:04;;;;;;;7.55;6.80;;;32.00;92.40;;;33.00;45.11;98226.94;10383867;28;20322;-68
2023/08/20 15:08:07;;;;;;;7.43;6.82;;;32.10;92.00;;;33.07;45.46;98226.69;10383324;28;20229;-68
2023/08/20 15:13:13;;;;;;;8.88;7.53;;;32.10;92.70;;;32.88;44.84;98217.47;10381633;28;20237;-66
2023/08/20 15:18:17;;;;;;;7.90;7.10;;;32.00;92.20;;;32.87;45.93;98219.25;10378656;28;20244;-67
2023/08/20 15:23:20;;;;;;;8.35;7.50;;;31.80;93.10;;;32.77;46.77;98216.91;10378837;28;20685;-67
2023/08/20 15:28:26;;;;;;;8.63;7.72;;;31.70;93.90;;;32.80;46.41;98216.84;10372760;28;20240;-67
2023/08/20 15:33:30;;;;;;;8.00;7.40;;;31.70;93.50;;;32.87;46.53;98219.25;10375275;28;20237;-67
2023/08/20 15:38:33;;;;;;;8.68;7.72;;;31.80;93.40;;;32.59;46.94;98219.09;10371799;28;20427;-67
2023/08/20 15:43:37;;;;;;;21.55;16.33;;;31.60;93.90;;;32.55;48.08;98222.75;10368706;28;20229;-67
2023/08/20 15:48:40;;;;;;;100.78;62.17;;;31.50;94.40;;;32.51;48.38;98221.13;10369657;28;21440;-67
2023/08/20 15:53:44;;;;;;;27.38;20.45;;;31.50;95.10;;;32.55;47.73;98225.41;10374243;28;21898;-67
2023/08/20 15:58:48;;;;;;;13.18;11.77;;;31.50;94.30;;;32.51;48.05;98215.81;10373290;28;20221;-67
2023/08/20 16:03:51;;;;;;;34.28;26.48;;;31.50;94.20;;;32.42;48.31;98216.88;10375584;28;20248;-67
2023/08/20 16:08:55;;;;;;;15.73;13.63;;;31.40;95.40;;;32.40;49.02;98217.84;10371252;28;20228;-68
2023/08/20 16:13:59;;;;;;;33.85;26.58;;;31.30;94.90;;;32.16;49.61;98214.84;10377263;28;20237;-67
2023/08/20 16:19:02;;;;;;;13.13;11.57;;;31.10;95.60;;;32.08;48.72;98217.72;10375873;28;20225;-67
2023/08/20 16:24:06;;;;;;;63.80;44.33;;;31.00;94.80;;;32.01;49.81;98215.22;10377163;28;20248;-67
2023/08/20 16:29:10;;;;;;;10.98;9.93;;;31.00;96.30;;;31.98;48.78;98210.00;10377684;28;20218;-67
2023/08/20 16:34:14;;;;;;;14.75;11.85;;;31.00;94.90;;;31.95;48.56;98218.03;10375472;28;20290;-67
2023/08/20 16:39:17;;;;;;;11.15;10.15;;;30.90;94.60;;;31.95;50.07;98223.31;10383550;28;20228;-67
2023/08/20 16:44:21;;;;;;;15.95;14.30;;;30.80;95.70;;;31.83;50.72;98214.72;10388804;28;20232;-67
2023/08/20 16:49:25;;;;;;;14.85;11.43;;;30.80;96.70;;;31.75;49.74;98214.00;10387373;28;20240;-67
2023/08/20 16:54:28;;;;;;;9.95;8.98;;;30.70;96.10;;;31.71;50.56;98212.34;10384116;28;20245;-67
2023/08/20 16:59:32;;;;;;;12.55;11.32;;;30.60;95.90;;;31.65;50.67;98223.06;10392696;28;20224;-67
2023/08/20 17:04:36;;;;;;;9.13;8.27;;;30.60;96.70;;;31.58;51.70;98227.59;10383808;28;20231;-67
2023/08/20 17:09:39;;;;;;;10.43;9.40;;;30.50;97.20;;;31.52;52.46;98232.16;10381470;28;20236;-67
2023/08/20 17:14:44;;;;;;;9.25;8.45;;;30.40;97.90;;;31.40;53.95;98233.28;10379157;28;20229;-67
2023/08/20 17:19:48;;;;;;;9.88;9.00;;;30.30;98.80;;;31.28;55.66;98244.94;10379788;28;20232;-67
2023/08/20 17:24:51;;;;;;;8.23;7.53;;;30.20;99.90;;;31.16;55.91;98246.06;10379600;28;20233;-67
2023/08/20 17:29:56;;;;;;;10.15;9.13;;;30.10;99.90;;;31.03;57.41;98249.81;10378641;28;20580;-68
2023/08/20 17:34:59;;;;;;;9.50;8.70;;;29.90;99.90;;;30.90;57.79;98254.44;10379949;28;20233;-68
2023/08/20 17:40:02;;;;;;;9.65;8.70;;;29.80;99.90;;;30.78;58.34;98254.66;10381490;28;20225;-69
2023/08/20 17:45:08;;;;;;;9.70;8.73;;;29.70;99.90;;;30.64;59.55;98243.47;10381293;28;20225;-68
2023/08/20 17:50:13;;;;;;;9.85;8.95;;;29.60;99.90;;;30.48;60.58;98246.38;10380093;28;20233;-68
2023/08/20 17:55:16;;;;;;;8.82;8.02;;;29.40;99.90;;;30.34;62.22;98236.94;10381434;28;20229;-68
2023/08/20 18:00:21;;;;;;;9.68;8.98;;;29.30;99.90;;;30.24;63.19;98252.03;10382006;28;20217;-68
2023/08/20 18:05:24;;;;;;;10.57;9.77;;;29.10;99.90;;;30.16;65.00;98248.59;10381137;28;20229;-67
2023/08/20 18:10:28;;;;;;;14.23;13.02;;;29.10;99.90;;;29.94;67.09;98248.06;10378466;28;20225;-68
2023/08/20 18:15:33;;;;;;;12.50;11.57;;;28.90;99.90;;;29.82;69.04;98260.53;10380823;28;20237;-67
2023/08/20 18:20:36;;;;;;;10.77;9.95;;;28.70;99.90;;;29.71;70.07;98272.09;10378866;28;20239;-68
2023/08/20 18:25:39;;;;;;;10.15;9.25;;;28.60;99.90;;;29.76;70.55;98280.78;10382717;28;20229;-68
2023/08/20 18:30:50;;;;;;;10.25;9.30;;;28.60;99.90;;;29.60;71.38;98280.97;10378217;28;20605;-68
2023/08/20 18:35:58;;;;;;;10.00;9.00;;;28.50;99.90;;;29.80;72.02;98314.16;10384221;28;20310;-68
2023/08/20 18:41:03;;;;;;;10.23;9.43;;;28.60;99.90;;;29.69;70.27;98342.41;10380761;28;20220;-68
2023/08/20 18:46:08;;;;;;;21.00;13.35;;;28.40;99.90;;;28.08;86.76;98462.84;10373753;28;20778;-68
2023/08/20 18:51:11;;;;;;;8.05;7.20;;;27.30;99.90;;;25.11;98.55;98358.94;10372648;28;20370;-68
2023/08/20 18:56:14;;;;;;;8.00;7.03;;;24.70;99.90;;;24.18;100.00;98351.09;10375872;28;20230;-68
2023/08/20 19:01:18;;;;;;;9.32;8.48;;;23.90;99.90;;;23.78;100.00;98366.31;10376323;28;20321;-67
2023/08/20 19:06:22;;;;;;;9.98;9.18;;;23.50;99.90;;;23.89;100.00;98363.78;10380909;28;20885;-68
2023/08/20 19:11:25;;;;;;;10.40;9.40;;;23.50;99.90;;;23.54;100.00;98360.72;10379178;28;20233;-67
2023/08/20 19:16:30;;;;;;;11.93;10.70;;;23.30;99.90;;;23.71;100.00;98367.06;10374163;28;20225;-68
2023/08/20 19:21:33;;;;;;;11.02;9.90;;;23.30;99.90;;;23.45;100.00;98371.91;10371485;28;20217;-67
2023/08/20 19:26:36;;;;;;;14.23;11.60;;;23.10;99.90;;;23.34;100.00;98365.66;10374400;28;20233;-68
2023/08/20 19:31:40;;;;;;;11.48;10.38;;;23.00;99.90;;;23.33;100.00;98362.16;10373141;28;20237;-67
2023/08/20 19:36:44;;;;;;;10.90;9.80;;;22.90;99.90;;;23.48;100.00;98358.03;10372473;28;20232;-67
2023/08/20 19:41:47;;;;;;;10.32;9.43;;;23.00;99.90;;;23.49;100.00;98368.47;10371416;28;20225;-67
2023/08/20 19:46:51;;;;;;;10.85;9.90;;;23.00;99.90;;;23.60;100.00;98371.22;10376903;28;20228;-67
2023/08/20 19:51:55;;;;;;;11.88;9.70;;;23.00;99.90;;;23.50;100.00;98375.47;10370490;28;20233;-67
2023/08/20 19:56:58;;;;;;;10.65;9.65;;;23.00;99.90;;;23.55;100.00;98367.66;10372070;28;20233;-67
2023/08/20 20:02:03;;;;;;;11.57;9.85;;;23.00;99.90;;;23.56;100.00;98379.88;10370975;28;20233;-67
2023/08/20 20:07:06;;;;;;;11.68;10.48;;;23.00;99.90;;;23.46;100.00;98378.00;10370968;28;20233;-67
2023/08/20 20:12:24;;;;;;;13.13;11.52;;;22.90;99.90;;;23.43;100.00;98388.38;10373400;28;20751;-67
2023/08/20 20:17:30;;;;;;;12.07;10.98;;;22.80;99.90;;;23.32;100.00;98389.13;10382727;28;20236;-67
2023/08/20 20:22:33;;;;;;;12.13;11.13;;;22.70;99.90;;;23.27;100.00;98387.31;10379676;28;20352;-68
2023/08/20 20:27:36;;;;;;;12.93;11.77;;;22.60;99.90;;;23.22;100.00;98384.59;10381989;28;20248;-67
2023/08/20 20:32:41;;;;;;;12.57;11.43;;;22.60;99.90;;;23.20;100.00;98391.53;10379562;28;20225;-67
2023/08/20 20:37:45;;;;;;;12.77;11.68;;;22.60;99.90;;;23.25;100.00;98389.88;10375683;28;20772;-67
2023/08/20 20:42:49;;;;;;;12.75;11.60;;;22.60;99.90;;;23.27;100.00;98393.38;10376897;28;20230;-67
2023/08/20 20:47:53;;;;;;;12.18;11.00;;;22.60;99.90;;;23.18;100.00;98403.69;10379655;28;20225;-67